Time;durP1;ratioP1;P1;durP2;ratioP2;P2;SDS_P1;SDS_P2;PMS_P1;PMS_P2;Temp;Humidity;BMP_temperature;BMP_pressure;BME280_temperature;BME280_humidity;BME280_pressure;Samples;Min_cycle;Max_cycle;Signal;HPM_P1;HPM_P2
2022/01/03 05:02:12;;;;;;;4.73;1.40;;;11.20;99.90;;;;;;5148937;23;21061;-76
2022/01/03 05:04:39;;;;;;;4.50;1.10;;;11.10;99.90;;;;;;4978402;28;20466;-77
2022/01/03 05:07:06;;;;;;;4.17;1.13;;;10.90;99.90;;;;;;4978181;28;20818;-78
2022/01/03 05:09:33;;;;;;;4.80;1.50;;;10.70;99.90;;;;;;4980133;28;20467;-76
2022/01/03 05:12:00;;;;;;;2.93;1.37;;;10.60;99.90;;;;;;4982524;28;20507;-75
2022/01/03 05:14:26;;;;;;;4.57;1.10;;;10.50;99.90;;;;;;4978006;28;20482;-75
2022/01/03 05:16:53;;;;;;;3.83;1.20;;;10.50;99.90;;;;;;4977876;28;20830;-76
2022/01/03 05:19:21;;;;;;;7.10;1.40;;;10.40;99.90;;;;;;4977926;28;20489;-77
2022/01/03 05:21:48;;;;;;;5.97;2.37;;;10.40;99.90;;;;;;4978223;28;20485;-75
2022/01/03 05:24:15;;;;;;;5.17;1.40;;;10.40;99.90;;;;;;4978020;28;20453;-77
2022/01/03 05:26:42;;;;;;;5.80;1.23;;;10.40;99.90;;;;;;4977926;28;20466;-76
2022/01/03 05:29:09;;;;;;;8.50;3.30;;;10.40;99.90;;;;;;4977680;28;20468;-75
2022/01/03 05:31:36;;;;;;;4.93;1.30;;;10.30;99.90;;;;;;4977859;28;20481;-75
2022/01/03 05:34:03;;;;;;;3.83;1.43;;;10.40;99.90;;;;;;4978550;28;20475;-76
2022/01/03 05:36:31;;;;;;;4.30;1.30;;;10.40;99.90;;;;;;4978117;28;20482;-76
2022/01/03 05:38:57;;;;;;;4.13;1.60;;;10.40;99.90;;;;;;4978164;28;20465;-76
2022/01/03 05:41:24;;;;;;;7.17;1.80;;;10.40;99.90;;;;;;4978572;28;20480;-76
2022/01/03 05:43:52;;;;;;;4.90;1.67;;;10.40;99.90;;;;;;4981426;28;20460;-73
2022/01/03 05:46:19;;;;;;;3.60;1.93;;;10.40;99.90;;;;;;4977200;28;20466;-74
2022/01/03 05:48:46;;;;;;;5.90;1.53;;;10.30;99.90;;;;;;4976818;28;20465;-74
2022/01/03 05:51:12;;;;;;;10.20;1.73;;;10.30;99.90;;;;;;4977745;28;20507;-72
2022/01/03 05:53:40;;;;;;;4.80;1.50;;;10.30;99.90;;;;;;4981925;28;20481;-74
2022/01/03 05:56:07;;;;;;;4.53;2.20;;;10.30;99.90;;;;;;4982243;28;20456;-73
2022/01/03 05:58:34;;;;;;;7.90;1.70;;;10.30;99.90;;;;;;4982059;28;20452;-73
2022/01/03 06:01:02;;;;;;;11.43;2.07;;;10.30;99.90;;;;;;4982280;28;20491;-74
2022/01/03 06:03:35;;;;;;;6.13;1.83;;;10.40;99.90;;;;;;4984453;28;20870;-75
2022/01/03 06:06:31;;;;;;;2.50;1.53;;;10.30;99.90;;;;;;4980371;28;20928;-75
2022/01/03 06:08:59;;;;;;;5.90;2.00;;;10.30;99.90;;;;;;4980716;28;20445;-75
2022/01/03 06:11:26;;;;;;;5.37;1.40;;;10.30;99.90;;;;;;4981164;28;20480;-75
2022/01/03 06:13:53;;;;;;;6.73;1.97;;;10.30;99.90;;;;;;4980545;28;21020;-75
2022/01/03 06:16:20;;;;;;;4.40;1.80;;;10.30;99.90;;;;;;4983802;28;20454;-73
2022/01/03 06:18:48;;;;;;;7.57;2.30;;;10.40;99.90;;;;;;4981446;28;20468;-72
2022/01/03 06:21:15;;;;;;;2.87;1.40;;;10.40;99.90;;;;;;4979675;28;20485;-75
2022/01/03 06:23:43;;;;;;;4.97;1.73;;;10.40;99.90;;;;;;4980360;28;20517;-75
2022/01/03 06:26:11;;;;;;;4.63;1.67;;;10.40;99.90;;;;;;4980069;28;20550;-70
2022/01/03 06:28:37;;;;;;;3.17;1.53;;;10.50;99.90;;;;;;4981722;28;20966;-71
2022/01/03 06:31:04;;;;;;;3.90;1.50;;;10.40;99.90;;;;;;4978764;28;20480;-74
2022/01/03 06:33:31;;;;;;;4.17;1.70;;;10.40;99.90;;;;;;4978967;28;20481;-73
2022/01/03 06:35:58;;;;;;;3.73;1.70;;;10.40;99.90;;;;;;4977837;28;20469;-74
2022/01/03 06:38:24;;;;;;;2.87;1.33;;;10.40;99.90;;;;;;4977084;28;20444;-74
2022/01/03 06:40:52;;;;;;;3.33;1.57;;;10.40;99.90;;;;;;4977876;28;20485;-73
2022/01/03 06:43:20;;;;;;;2.83;1.50;;;10.50;99.90;;;;;;4981329;28;20452;-74
2022/01/03 06:45:47;;;;;;;4.00;1.50;;;10.50;99.90;;;;;;4978980;28;20457;-74
2022/01/03 06:48:14;;;;;;;4.47;1.70;;;10.50;99.90;;;;;;4977095;28;20948;-73
2022/01/03 06:50:40;;;;;;;4.77;1.63;;;10.50;99.90;;;;;;4977056;28;20479;-74
2022/01/03 06:53:07;;;;;;;6.23;1.23;;;10.50;99.90;;;;;;4976790;28;20487;-74
2022/01/03 06:55:34;;;;;;;7.20;1.90;;;10.50;99.90;;;;;;4976885;28;20458;-73
2022/01/03 06:58:00;;;;;;;5.07;1.83;;;10.50;99.90;;;;;;4976875;28;20469;-73
2022/01/03 07:00:29;;;;;;;4.83;1.60;;;10.50;99.90;;;;;;4976241;28;20979;-74
2022/01/03 07:02:55;;;;;;;5.93;1.83;;;10.50;99.90;;;;;;4976804;28;20444;-73
2022/01/03 07:05:23;;;;;;;9.00;1.80;;;10.50;99.90;;;;;;4976757;28;20464;-73
2022/01/03 07:07:50;;;;;;;8.23;1.10;;;10.50;99.90;;;;;;4976969;28;20467;-73
2022/01/03 07:10:18;;;;;;;3.70;1.20;;;10.50;99.90;;;;;;4976594;28;20458;-74
2022/01/03 07:12:45;;;;;;;3.03;2.03;;;10.60;99.90;;;;;;4977023;28;20512;-74
2022/01/03 07:20:41;;;;;;;4.90;1.20;;;10.60;99.90;;;;;;4975832;28;20518;-71
2022/01/03 07:23:08;;;;;;;8.03;1.80;;;10.60;99.90;;;;;;4975916;28;20462;-71
2022/01/03 07:25:35;;;;;;;6.27;1.93;;;10.60;99.90;;;;;;4975938;28;20466;-70
2022/01/03 07:28:02;;;;;;;9.30;2.27;;;10.50;99.90;;;;;;4976234;28;20459;-70
2022/01/03 07:30:28;;;;;;;6.83;2.10;;;10.50;99.90;;;;;;4976017;28;20466;-70
2022/01/03 07:32:57;;;;;;;5.23;1.90;;;10.50;99.90;;;;;;4976031;28;20464;-69
2022/01/03 07:35:25;;;;;;;6.27;1.97;;;10.40;99.90;;;;;;4977659;28;20476;-74
2022/01/03 07:37:53;;;;;;;4.17;1.70;;;10.50;99.90;;;;;;4979169;28;20455;-71
2022/01/03 07:40:20;;;;;;;5.97;1.70;;;10.50;99.90;;;;;;4980053;28;20445;-73
2022/01/03 07:42:47;;;;;;;4.73;1.60;;;10.50;99.90;;;;;;4980189;28;20443;-73
2022/01/03 07:45:14;;;;;;;6.80;1.50;;;10.50;99.90;;;;;;4980866;28;20454;-73
2022/01/03 07:47:41;;;;;;;7.50;1.80;;;10.50;99.90;;;;;;4980655;28;20551;-74
2022/01/03 07:50:11;;;;;;;8.03;1.87;;;10.40;99.90;;;;;;4980494;28;20458;-75
2022/01/03 07:52:38;;;;;;;6.57;1.57;;;10.50;99.90;;;;;;4982662;28;20545;-74
2022/01/03 07:55:07;;;;;;;6.97;1.90;;;10.40;99.90;;;;;;4981393;28;20484;-74
2022/01/03 07:57:34;;;;;;;6.60;1.63;;;10.40;99.90;;;;;;4981322;28;20456;-74
2022/01/03 08:00:01;;;;;;;9.17;1.87;;;10.40;99.90;;;;;;4979285;28;20517;-71
2022/01/03 08:02:29;;;;;;;5.53;1.50;;;10.40;99.90;;;;;;4978805;28;20483;-70
2022/01/03 08:04:56;;;;;;;7.97;1.60;;;10.40;99.90;;;;;;4979375;28;20454;-70
2022/01/03 08:07:24;;;;;;;5.40;1.70;;;10.40;99.90;;;;;;4979320;28;20457;-70
2022/01/03 08:09:51;;;;;;;5.17;1.80;;;10.40;99.90;;;;;;4978596;28;20457;-70
2022/01/03 08:12:18;;;;;;;5.10;1.60;;;10.40;99.90;;;;;;4978717;28;20500;-71
2022/01/03 08:14:45;;;;;;;12.17;2.50;;;10.40;99.90;;;;;;4979853;28;20464;-69
2022/01/03 08:17:11;;;;;;;6.23;2.37;;;10.40;99.90;;;;;;4980195;28;20464;-73
2022/01/03 08:19:38;;;;;;;8.63;2.17;;;10.40;99.90;;;;;;4981184;28;20462;-74
2022/01/03 08:22:05;;;;;;;4.57;1.77;;;10.40;99.90;;;;;;4982756;28;20483;-75
2022/01/03 08:24:33;;;;;;;4.53;1.90;;;10.40;99.90;;;;;;4982334;28;20450;-76
2022/01/03 08:27:00;;;;;;;9.40;3.33;;;10.40;99.90;;;;;;4980211;28;20463;-75
2022/01/03 08:29:26;;;;;;;7.53;2.57;;;10.40;99.90;;;;;;4980914;28;20445;-75
2022/01/03 08:31:53;;;;;;;8.37;2.37;;;10.40;99.90;;;;;;4981160;28;20488;-75
2022/01/03 08:34:20;;;;;;;8.70;2.40;;;10.20;99.90;;;;;;4981147;28;20602;-75
2022/01/03 08:36:47;;;;;;;5.13;1.80;;;10.00;99.90;;;;;;4980958;28;20456;-75
2022/01/03 08:39:14;;;;;;;8.30;2.73;;;10.00;99.90;;;;;;4981657;28;20485;-75
2022/01/03 08:41:42;;;;;;;11.20;2.20;;;10.10;99.90;;;;;;4980892;28;20674;-75
2022/01/03 08:44:09;;;;;;;5.80;2.37;;;10.00;99.90;;;;;;4979780;28;20463;-73
2022/01/03 08:46:36;;;;;;;7.83;3.13;;;10.10;99.90;;;;;;4980262;28;20551;-71
2022/01/03 08:49:03;;;;;;;7.60;2.73;;;10.10;99.90;;;;;;4977927;28;20462;-71
2022/01/03 08:51:30;;;;;;;9.53;2.63;;;10.20;99.90;;;;;;4979809;28;20830;-69
2022/01/03 08:53:57;;;;;;;7.83;2.10;;;10.30;99.90;;;;;;4980949;28;20484;-71
2022/01/03 08:56:24;;;;;;;7.70;1.77;;;10.30;99.90;;;;;;4978867;28;20443;-73
2022/01/03 08:58:54;;;;;;;9.83;3.10;;;10.40;99.90;;;;;;4979431;28;20461;-72
2022/01/03 09:01:20;;;;;;;8.70;3.33;;;10.40;99.90;;;;;;4982079;28;20488;-70
2022/01/03 09:03:50;;;;;;;9.67;2.57;;;10.40;99.90;;;;;;4978734;28;20869;-71
2022/01/03 09:06:17;;;;;;;10.27;2.47;;;10.40;99.90;;;;;;4978028;28;20900;-72
2022/01/03 09:08:43;;;;;;;8.33;2.03;;;10.40;99.90;;;;;;4977751;28;20457;-72
2022/01/03 09:11:10;;;;;;;11.63;3.00;;;10.50;99.90;;;;;;4979218;28;20480;-73
2022/01/03 09:13:37;;;;;;;7.60;3.17;;;10.50;99.90;;;;;;4978536;28;20465;-69
2022/01/03 09:16:07;;;;;;;8.60;2.10;;;10.60;99.90;;;;;;4977405;28;20996;-70
2022/01/03 09:18:35;;;;;;;10.10;4.27;;;10.70;99.90;;;;;;4979125;28;20461;-69
2022/01/03 09:21:01;;;;;;;11.20;3.83;;;10.70;99.90;;;;;;4980152;28;20478;-69
2022/01/03 09:23:32;;;;;;;5.03;2.33;;;10.70;99.90;;;;;;4979788;28;20445;-72
2022/01/03 09:28:53;;;;;;;9.27;2.83;;;10.70;99.90;;;;;;4956518;28;20472;-72
2022/01/03 09:31:24;;;;;;;7.27;2.93;;;10.80;99.90;;;;;;4978450;28;20477;-69
2022/01/03 09:33:52;;;;;;;9.53;2.80;;;10.80;99.90;;;;;;4978767;28;20496;-74
2022/01/03 09:36:19;;;;;;;8.03;2.67;;;10.70;99.90;;;;;;4979054;28;20460;-72
2022/01/03 09:38:45;;;;;;;9.63;2.50;;;10.80;99.90;;;;;;4979268;28;20908;-72
2022/01/03 09:41:13;;;;;;;8.47;2.40;;;10.80;99.90;;;;;;4977526;28;20479;-73
2022/01/03 09:43:46;;;;;;;13.63;2.33;;;10.80;99.90;;;;;;4978623;28;20452;-72
2022/01/03 09:46:14;;;;;;;5.00;2.27;;;10.70;99.90;;;;;;4979347;28;20443;-74
2022/01/03 09:48:44;;;;;;;8.40;2.23;;;10.80;99.90;;;;;;4979652;28;20512;-74
2022/01/03 09:51:12;;;;;;;7.10;2.10;;;10.90;99.90;;;;;;4983510;28;20491;-74
2022/01/03 09:53:40;;;;;;;7.30;2.50;;;10.90;99.90;;;;;;4980686;28;20962;-69
2022/01/03 09:56:07;;;;;;;15.20;2.63;;;10.90;99.90;;;;;;4988420;28;20484;-72
2022/01/03 09:58:37;;;;;;;9.40;2.60;;;10.90;99.90;;;;;;4978824;28;20464;-72
2022/01/03 10:01:04;;;;;;;9.63;3.23;;;10.90;99.90;;;;;;4986593;28;20485;-74
2022/01/03 10:03:31;;;;;;;4.87;2.13;;;11.00;99.90;;;;;;4987416;28;20452;-73
2022/01/03 10:06:00;;;;;;;4.47;2.60;;;11.00;99.90;;;;;;4981111;28;20539;-70
2022/01/03 10:08:26;;;;;;;8.00;2.87;;;11.10;99.90;;;;;;4978793;28;20465;-74
2022/01/03 10:10:53;;;;;;;9.57;2.73;;;11.20;99.90;;;;;;4981212;28;20955;-73
2022/01/03 10:13:20;;;;;;;11.43;2.53;;;11.30;99.90;;;;;;4979520;28;20470;-72
2022/01/03 10:15:47;;;;;;;5.23;2.80;;;11.30;99.90;;;;;;4978079;28;20490;-69
2022/01/03 10:18:18;;;;;;;7.30;2.53;;;11.40;99.90;;;;;;4978050;28;20458;-70
2022/01/03 10:20:45;;;;;;;5.03;2.73;;;11.40;99.90;;;;;;4979002;28;20485;-69
2022/01/03 10:23:17;;;;;;;6.83;2.50;;;11.40;99.90;;;;;;4978518;28;20464;-70
2022/01/03 10:25:46;;;;;;;7.70;2.40;;;11.40;99.90;;;;;;4978109;28;20922;-69
2022/01/03 10:28:21;;;;;;;4.93;2.50;;;11.40;99.90;;;;;;4978826;28;20455;-75
2022/01/03 10:30:48;;;;;;;5.73;2.10;;;11.60;99.90;;;;;;4978222;28;20481;-75
2022/01/03 10:33:16;;;;;;;5.47;2.57;;;11.60;99.90;;;;;;4978862;28;20457;-74
2022/01/03 10:35:45;;;;;;;12.40;3.63;;;11.70;99.90;;;;;;4979046;28;20485;-74
2022/01/03 10:38:31;;;;;;;5.43;2.40;;;11.70;99.90;;;;;;4978195;28;20455;-72
2022/01/03 10:41:10;;;;;;;4.23;2.00;;;11.80;99.90;;;;;;4975715;28;20501;-71
2022/01/03 10:43:36;;;;;;;8.33;2.30;;;11.80;99.90;;;;;;4976206;28;20478;-74
2022/01/03 10:46:18;;;;;;;9.27;2.27;;;11.80;99.90;;;;;;4977300;28;20455;-73
2022/01/03 10:48:44;;;;;;;8.70;2.87;;;11.90;99.90;;;;;;4976400;28;20447;-73
2022/01/03 10:51:11;;;;;;;6.37;2.57;;;11.90;99.90;;;;;;4977546;28;20502;-73
2022/01/03 10:53:41;;;;;;;4.30;1.83;;;11.90;99.90;;;;;;4978394;28;20479;-72
2022/01/03 10:56:30;;;;;;;6.00;2.40;;;12.00;99.90;;;;;;4976170;28;20477;-73
2022/01/03 10:58:59;;;;;;;4.43;2.13;;;12.00;99.90;;;;;;4976671;28;20941;-70
2022/01/03 11:01:28;;;;;;;7.40;2.53;;;12.10;99.90;;;;;;4976437;28;20491;-70
2022/01/03 11:03:58;;;;;;;4.50;2.33;;;12.10;99.90;;;;;;4977396;28;20458;-70
2022/01/03 11:06:46;;;;;;;8.90;2.10;;;12.10;99.90;;;;;;4976920;28;20443;-69
2022/01/03 11:12:18;;;;;;;5.10;2.60;;;12.10;99.90;;;;;;4979782;28;20466;-72
2022/01/03 11:14:45;;;;;;;6.20;2.00;;;12.20;99.90;;;;;;4979508;28;20465;-72
2022/01/03 11:17:23;;;;;;;8.60;4.53;;;12.30;99.90;;;;;;4979389;28;20443;-72
2022/01/03 11:19:49;;;;;;;8.73;2.70;;;12.40;99.90;;;;;;4980580;28;20480;-74
2022/01/03 11:22:38;;;;;;;3.90;1.97;;;12.40;99.90;;;;;;4982145;28;20484;-74
2022/01/03 11:25:07;;;;;;;7.00;2.67;;;12.40;99.90;;;;;;4979928;28;20455;-74
2022/01/03 11:27:38;;;;;;;3.57;1.83;;;12.50;99.90;;;;;;4981594;28;20465;-72
2022/01/03 11:30:06;;;;;;;4.47;2.40;;;12.60;99.90;;;;;;4983763;28;20537;-70
2022/01/03 11:32:34;;;;;;;4.47;2.90;;;12.60;99.90;;;;;;4985363;28;20474;-73
2022/01/03 11:35:02;;;;;;;5.73;1.93;;;12.60;99.90;;;;;;4981714;28;20512;-72
2022/01/03 11:37:32;;;;;;;6.60;2.87;;;12.70;99.90;;;;;;4980987;28;20455;-73
2022/01/03 11:40:03;;;;;;;15.00;2.40;;;12.60;99.90;;;;;;4980655;28;20444;-72
2022/01/03 11:42:33;;;;;;;9.90;2.30;;;12.70;99.90;;;;;;4981311;28;20474;-75
2022/01/03 11:45:00;;;;;;;8.60;2.57;;;12.80;99.90;;;;;;4981391;28;20459;-74
2022/01/03 11:47:27;;;;;;;5.70;2.67;;;12.90;99.90;;;;;;4981629;28;20462;-73
2022/01/03 11:49:54;;;;;;;7.90;2.77;;;13.00;99.90;;;;;;4980828;28;20562;-72
2022/01/03 11:52:21;;;;;;;6.80;2.43;;;13.00;99.90;;;;;;4980284;28;20481;-71
2022/01/03 11:54:50;;;;;;;6.03;2.00;;;13.00;99.90;;;;;;4979077;28;20467;-72
2022/01/03 11:57:22;;;;;;;7.70;2.00;;;12.90;99.90;;;;;;4979021;28;20502;-72
2022/01/03 12:05:45;;;;;;;4.90;2.20;;;13.00;99.90;;;;;;4979771;28;20415;-70
2022/01/03 12:08:21;;;;;;;6.40;2.60;;;13.10;99.90;;;;;;4979451;28;20455;-69
2022/01/03 12:10:48;;;;;;;4.60;2.00;;;13.10;99.90;;;;;;4979622;28;20544;-70
2022/01/03 12:13:15;;;;;;;6.13;2.90;;;13.10;99.90;;;;;;4978812;28;20946;-72
2022/01/03 12:15:43;;;;;;;5.13;2.70;;;13.20;99.90;;;;;;4979095;28;20471;-72
2022/01/03 12:18:30;;;;;;;8.83;2.37;;;13.30;99.90;;;;;;4979733;28;20463;-73
2022/01/03 12:20:57;;;;;;;5.07;1.80;;;13.30;99.90;;;;;;4979503;28;20481;-75
2022/01/03 12:23:38;;;;;;;4.60;2.23;;;13.30;99.90;;;;;;4979361;28;20467;-74
2022/01/03 12:26:11;;;;;;;4.10;1.57;;;13.30;99.90;;;;;;4979471;28;20454;-74
2022/01/03 12:29:06;;;;;;;4.13;1.80;;;13.30;99.90;;;;;;4980322;28;20464;-75
2022/01/03 12:32:12;;;;;;;4.30;1.83;;;13.30;99.90;;;;;;4980386;28;20480;-69
2022/01/03 12:34:41;;;;;;;4.73;1.50;;;13.30;99.90;;;;;;4980410;28;20468;-73
2022/01/03 12:37:18;;;;;;;4.60;1.47;;;13.20;99.90;;;;;;4979854;28;20502;-75
2022/01/03 12:40:13;;;;;;;8.60;2.07;;;13.20;99.90;;;;;;4979801;28;20459;-74
2022/01/03 12:42:56;;;;;;;2.00;1.10;;;13.20;99.90;;;;;;4979216;28;20452;-75
2022/01/03 12:45:52;;;;;;;3.07;0.90;;;13.10;99.90;;;;;;4978774;28;20437;-77
2022/01/03 12:48:20;;;;;;;3.60;1.13;;;13.00;99.90;;;;;;4978962;28;20450;-74
2022/01/03 12:51:09;;;;;;;4.93;1.20;;;13.00;99.90;;;;;;4980720;28;20547;-72
2022/01/03 12:53:41;;;;;;;4.50;1.40;;;12.80;99.90;;;;;;4980076;28;20498;-73
2022/01/03 12:56:09;;;;;;;5.40;1.30;;;12.90;99.90;;;;;;4987075;28;20467;-70
2022/01/03 12:58:41;;;;;;;3.87;1.20;;;12.90;99.90;;;;;;4986326;28;20517;-72
2022/01/03 13:01:23;;;;;;;4.40;1.20;;;12.90;99.90;;;;;;4987047;28;20484;-73
2022/01/03 13:03:51;;;;;;;4.87;1.00;;;12.90;99.90;;;;;;4983566;28;20966;-73
2022/01/03 13:06:20;;;;;;;2.10;1.10;;;12.90;99.90;;;;;;4980013;28;20969;-73
2022/01/03 13:09:03;;;;;;;1.83;1.27;;;13.00;99.90;;;;;;4979069;28;20458;-73
2022/01/03 13:11:32;;;;;;;2.20;1.10;;;13.00;99.90;;;;;;4978747;28;20478;-73
2022/01/03 13:14:03;;;;;;;1.60;1.00;;;13.00;99.90;;;;;;4980520;28;20463;-73
2022/01/03 13:16:32;;;;;;;2.70;1.50;;;12.90;99.90;;;;;;4979304;28;20471;-75
2022/01/03 13:19:02;;;;;;;3.33;1.47;;;12.90;99.90;;;;;;4979531;28;20526;-73
2022/01/03 13:21:35;;;;;;;3.03;1.30;;;12.80;99.90;;;;;;4981195;28;20483;-73
2022/01/03 13:24:09;;;;;;;5.87;1.20;;;12.80;99.90;;;;;;4981814;28;20477;-73
2022/01/03 13:26:51;;;;;;;8.27;2.23;;;12.70;99.90;;;;;;4982373;28;20497;-73
2022/01/03 13:29:17;;;;;;;2.30;1.70;;;12.70;99.90;;;;;;4981362;28;20453;-74
2022/01/03 13:31:44;;;;;;;2.70;1.37;;;12.70;99.90;;;;;;4981801;28;20472;-73
2022/01/03 13:34:11;;;;;;;4.40;1.83;;;12.70;99.90;;;;;;4978427;28;20469;-72
2022/01/03 13:36:44;;;;;;;3.47;1.50;;;12.60;99.90;;;;;;4977854;28;20479;-72
2022/01/03 13:39:13;;;;;;;1.90;1.17;;;12.60;99.90;;;;;;4978822;28;20450;-72
2022/01/03 13:41:41;;;;;;;4.23;2.03;;;12.60;99.90;;;;;;4978195;28;20486;-73
2022/01/03 13:44:11;;;;;;;5.00;1.33;;;12.60;99.90;;;;;;4978648;28;20847;-71
2022/01/03 13:49:23;;;;;;;6.43;2.07;;;12.70;99.90;;;;;;4978017;28;20494;-72
2022/01/03 13:51:53;;;;;;;5.50;2.17;;;12.80;99.90;;;;;;4977669;28;20479;-73
2022/01/03 13:54:25;;;;;;;7.87;1.37;;;12.80;99.90;;;;;;4978322;28;20446;-72
2022/01/03 13:56:53;;;;;;;3.10;1.10;;;12.80;99.90;;;;;;4977791;28;20481;-73
2022/01/03 13:59:22;;;;;;;2.63;1.27;;;12.80;99.90;;;;;;4978209;28;20462;-72
2022/01/03 14:01:50;;;;;;;2.10;1.40;;;12.80;99.90;;;;;;4977367;28;20499;-72
2022/01/03 14:04:17;;;;;;;5.73;1.50;;;12.80;99.90;;;;;;4977291;28;20462;-73
2022/01/03 14:06:44;;;;;;;6.17;1.57;;;12.80;99.90;;;;;;4977218;28;20455;-72
2022/01/03 14:09:18;;;;;;;2.93;1.30;;;12.80;99.90;;;;;;4977341;28;20468;-72
2022/01/03 14:11:45;;;;;;;3.80;1.20;;;12.90;99.90;;;;;;4978042;28;20499;-72
2022/01/03 14:14:13;;;;;;;2.63;1.17;;;12.90;99.90;;;;;;4978221;28;20455;-74
2022/01/03 14:16:53;;;;;;;4.40;1.30;;;12.90;99.90;;;;;;4978079;28;20486;-72
2022/01/03 14:19:21;;;;;;;3.53;1.37;;;12.80;99.90;;;;;;4978184;28;20461;-72
2022/01/03 14:21:49;;;;;;;3.60;1.50;;;12.80;99.90;;;;;;4977795;28;20481;-72
2022/01/03 14:24:18;;;;;;;3.83;1.40;;;12.80;99.90;;;;;;4978436;28;20532;-73
2022/01/03 14:26:56;;;;;;;1.10;1.00;;;12.80;99.90;;;;;;4978441;28;20511;-72
2022/01/03 14:29:23;;;;;;;4.10;1.13;;;12.70;99.90;;;;;;4976294;28;20475;-72
2022/01/03 14:31:53;;;;;;;2.70;1.07;;;12.60;99.90;;;;;;4976902;28;20486;-72
2022/01/03 14:34:24;;;;;;;7.93;1.53;;;12.60;99.90;;;;;;4977826;28;20450;-73
2022/01/03 14:36:52;;;;;;;9.73;1.10;;;12.60;99.90;;;;;;4975995;28;20483;-72
2022/01/03 14:39:21;;;;;;;4.10;1.40;;;12.60;99.90;;;;;;4978463;28;20478;-73
2022/01/03 14:41:59;;;;;;;4.90;1.37;;;12.60;99.90;;;;;;4976360;28;20482;-72
2022/01/03 14:44:27;;;;;;;1.60;1.40;;;12.60;99.90;;;;;;4975526;28;20466;-72
2022/01/03 14:47:03;;;;;;;1.90;1.40;;;12.60;99.90;;;;;;4976988;28;20455;-72
2022/01/03 14:49:30;;;;;;;3.87;1.90;;;12.60;99.90;;;;;;4977068;28;20451;-72
2022/01/03 14:51:57;;;;;;;1.90;1.13;;;12.60;99.90;;;;;;4976090;28;20486;-73
2022/01/03 14:54:29;;;;;;;1.97;1.40;;;12.60;99.90;;;;;;4976053;28;20462;-72
2022/01/03 14:56:56;;;;;;;2.20;1.20;;;12.70;99.90;;;;;;4975525;28;20465;-72
2022/01/03 14:59:27;;;;;;;3.57;1.30;;;12.60;99.90;;;;;;4975371;28;20494;-72
2022/01/03 15:01:56;;;;;;;4.63;2.33;;;12.60;99.90;;;;;;4975507;28;20929;-72
2022/01/03 15:04:26;;;;;;;2.17;1.30;;;12.50;99.90;;;;;;4975354;28;20463;-72
2022/01/03 15:06:53;;;;;;;3.00;1.40;;;12.50;99.90;;;;;;4975254;28;20782;-72
2022/01/03 15:09:22;;;;;;;6.20;1.43;;;12.50;99.90;;;;;;4975600;28;20454;-70
2022/01/03 15:11:52;;;;;;;4.33;1.23;;;12.50;99.90;;;;;;4975570;28;20529;-70
2022/01/03 15:14:18;;;;;;;2.83;1.00;;;12.70;99.90;;;;;;4976477;28;20511;-73
2022/01/03 15:16:45;;;;;;;2.93;1.67;;;12.80;99.90;;;;;;4975515;28;20484;-72
2022/01/03 15:19:12;;;;;;;2.97;1.80;;;12.80;99.90;;;;;;4975483;28;20581;-72
2022/01/03 15:21:40;;;;;;;2.13;1.13;;;12.80;99.90;;;;;;4975032;28;20479;-73
2022/01/03 15:24:07;;;;;;;4.90;1.53;;;12.80;99.90;;;;;;4975014;28;20498;-72
2022/01/03 15:26:34;;;;;;;4.60;1.70;;;12.70;99.90;;;;;;4975104;28;20459;-73
2022/01/03 15:29:02;;;;;;;2.87;1.97;;;12.60;99.90;;;;;;4975035;28;20946;-73
2022/01/03 15:31:29;;;;;;;5.80;1.50;;;12.60;99.90;;;;;;4975491;28;20967;-73
2022/01/03 15:33:55;;;;;;;4.50;1.57;;;12.60;99.90;;;;;;4975129;28;20484;-74
2022/01/03 15:36:24;;;;;;;2.63;1.30;;;12.50;99.90;;;;;;4975680;28;20827;-73
2022/01/03 15:38:51;;;;;;;3.30;1.80;;;12.50;99.90;;;;;;4975512;28;20470;-74
2022/01/03 15:41:18;;;;;;;3.00;1.40;;;12.30;99.90;;;;;;4974954;28;21011;-73
2022/01/03 15:43:44;;;;;;;3.57;1.50;;;12.30;99.90;;;;;;4974987;28;20466;-73
2022/01/03 15:46:13;;;;;;;8.07;2.23;;;12.30;99.90;;;;;;4976079;28;20455;-74
2022/01/03 15:48:40;;;;;;;2.37;1.53;;;12.20;99.90;;;;;;4975850;28;20485;-74
2022/01/03 15:51:07;;;;;;;8.13;2.40;;;12.20;99.90;;;;;;4975319;28;20833;-75
2022/01/03 15:53:34;;;;;;;5.17;1.80;;;12.20;99.90;;;;;;4975407;28;20449;-75
2022/01/03 15:56:01;;;;;;;1.77;1.57;;;12.10;99.90;;;;;;4976024;28;20445;-74
2022/01/03 15:58:27;;;;;;;3.37;1.80;;;12.10;99.90;;;;;;4979023;28;20484;-73
2022/01/03 16:00:55;;;;;;;4.10;1.93;;;12.00;99.90;;;;;;4978664;28;20994;-75
2022/01/03 16:03:23;;;;;;;4.27;1.50;;;12.00;99.90;;;;;;4978736;28;20454;-75
2022/01/03 16:05:50;;;;;;;6.03;1.80;;;11.90;99.90;;;;;;4979267;28;20450;-74
2022/01/03 16:08:17;;;;;;;4.53;2.23;;;11.90;99.90;;;;;;4979702;28;20965;-75
2022/01/03 16:10:44;;;;;;;2.73;1.47;;;11.90;99.90;;;;;;4983048;28;20474;-76
2022/01/03 16:13:11;;;;;;;4.30;1.63;;;11.90;99.90;;;;;;4979311;28;20453;-75
2022/01/03 16:15:38;;;;;;;3.10;1.50;;;11.80;99.90;;;;;;4979040;28;20510;-75
2022/01/03 16:18:05;;;;;;;2.93;1.60;;;11.80;99.90;;;;;;4978690;28;20505;-74
2022/01/03 16:20:33;;;;;;;3.13;1.80;;;11.80;99.90;;;;;;4978974;28;20456;-73
2022/01/03 16:23:00;;;;;;;3.93;1.60;;;11.70;99.90;;;;;;4979197;28;20453;-75
2022/01/03 16:25:27;;;;;;;2.03;1.53;;;11.60;99.90;;;;;;4978967;28;20463;-75
2022/01/03 16:27:54;;;;;;;3.77;1.70;;;11.70;99.90;;;;;;4977782;28;20459;-73
2022/01/03 16:30:21;;;;;;;3.23;1.30;;;11.60;99.90;;;;;;4977807;28;20461;-74
2022/01/03 16:32:48;;;;;;;3.33;1.40;;;11.60;99.90;;;;;;4977931;28;20462;-74
2022/01/03 16:35:16;;;;;;;9.23;2.80;;;11.60;99.90;;;;;;4978448;28;20463;-74
2022/01/03 16:37:44;;;;;;;3.20;1.30;;;11.60;99.90;;;;;;4978240;28;20525;-73
2022/01/03 16:40:13;;;;;;;4.53;2.00;;;11.60;99.90;;;;;;4978611;28;20453;-74
2022/01/03 16:42:39;;;;;;;5.70;2.00;;;11.60;99.90;;;;;;4978191;28;20830;-67
2022/01/03 16:45:07;;;;;;;5.73;2.20;;;11.60;99.90;;;;;;4978314;28;20443;-74
2022/01/03 16:47:34;;;;;;;2.13;1.70;;;11.60;99.90;;;;;;4978101;28;20437;-73
2022/01/03 16:50:02;;;;;;;4.20;1.87;;;11.60;99.90;;;;;;4978439;28;20455;-73
2022/01/03 16:52:29;;;;;;;3.27;2.00;;;11.50;99.90;;;;;;4977881;28;20487;-73
2022/01/03 16:54:57;;;;;;;4.27;1.60;;;11.60;99.90;;;;;;4977846;28;20461;-74
2022/01/03 16:57:25;;;;;;;4.10;2.10;;;11.50;99.90;;;;;;4977894;28;20482;-72
2022/01/03 16:59:52;;;;;;;4.53;1.97;;;11.50;99.90;;;;;;4977785;28;20484;-73
2022/01/03 17:02:19;;;;;;;3.23;1.63;;;11.50;99.90;;;;;;4977648;28;20489;-74
2022/01/03 17:04:45;;;;;;;9.93;2.00;;;11.50;99.90;;;;;;4978586;28;20459;-73
2022/01/03 17:07:12;;;;;;;3.07;1.73;;;11.50;99.90;;;;;;4978396;28;20456;-73
2022/01/03 17:09:42;;;;;;;2.20;2.00;;;11.50;99.90;;;;;;4977847;28;20487;-74
2022/01/03 17:12:11;;;;;;;5.97;2.13;;;11.50;99.90;;;;;;4977757;28;20848;-73
2022/01/03 17:14:38;;;;;;;4.97;2.43;;;11.50;99.90;;;;;;4977641;28;20458;-74
2022/01/03 17:17:05;;;;;;;2.03;1.93;;;11.50;99.90;;;;;;4977900;28;20881;-73
2022/01/03 17:19:32;;;;;;;2.73;1.80;;;11.50;99.90;;;;;;4977245;28;20465;-74
2022/01/03 17:21:59;;;;;;;3.00;1.93;;;11.60;99.90;;;;;;4977688;28;20481;-74
2022/01/03 17:24:28;;;;;;;4.60;2.40;;;11.60;99.90;;;;;;4977374;28;20471;-74
2022/01/03 17:26:55;;;;;;;4.33;2.10;;;11.60;99.90;;;;;;4977551;28;20483;-73
2022/01/03 17:29:23;;;;;;;8.07;2.20;;;11.60;99.90;;;;;;4977079;28;20968;-74
2022/01/03 17:31:50;;;;;;;3.30;1.80;;;11.60;99.90;;;;;;4978082;28;20482;-74
2022/01/03 17:34:16;;;;;;;3.07;2.07;;;11.50;99.90;;;;;;4978601;28;20463;-73
2022/01/03 17:36:43;;;;;;;3.90;2.60;;;11.60;99.90;;;;;;4978020;28;20483;-73
2022/01/03 17:39:10;;;;;;;2.00;1.80;;;11.60;99.90;;;;;;4977347;28;20460;-73
2022/01/03 17:41:38;;;;;;;4.70;2.63;;;11.60;99.90;;;;;;4979992;28;20482;-73
2022/01/03 17:44:05;;;;;;;6.80;2.47;;;11.50;99.90;;;;;;4977712;28;20443;-74
2022/01/03 17:46:33;;;;;;;2.70;2.00;;;11.50;99.90;;;;;;4977002;28;20969;-74
2022/01/03 17:49:03;;;;;;;3.00;1.77;;;11.50;99.90;;;;;;4976709;28;20469;-75
2022/01/03 17:51:30;;;;;;;5.40;1.97;;;11.40;99.90;;;;;;4976712;28;20478;-73
2022/01/03 17:53:57;;;;;;;5.10;2.03;;;11.50;99.90;;;;;;4976678;28;20534;-72
2022/01/03 17:56:25;;;;;;;3.10;1.80;;;11.50;99.90;;;;;;4976347;28;20457;-73
2022/01/03 17:58:51;;;;;;;3.77;2.10;;;11.50;99.90;;;;;;4976606;28;20458;-74
2022/01/03 18:01:18;;;;;;;2.60;1.90;;;11.50;99.90;;;;;;4976332;28;20490;-75
2022/01/03 18:03:47;;;;;;;4.57;2.40;;;11.50;99.90;;;;;;4976673;28;20454;-73
2022/01/03 18:06:13;;;;;;;8.07;2.50;;;11.50;99.90;;;;;;4976336;28;20456;-73
2022/01/03 18:08:41;;;;;;;2.63;1.73;;;11.40;99.90;;;;;;4976198;28;20461;-72
2022/01/03 18:11:11;;;;;;;4.30;2.30;;;11.40;99.90;;;;;;4976558;28;20473;-73
2022/01/03 18:13:38;;;;;;;2.60;1.80;;;11.40;99.90;;;;;;4975974;28;20465;-72
2022/01/03 18:16:05;;;;;;;3.73;2.70;;;11.40;99.90;;;;;;4975892;28;20464;-72